createdAt,value
2019-05-28T00:00:02.224Z,18.07
2019-05-28T00:02:26.309Z,15.40
2019-05-28T00:04:57.238Z,15.57
2019-05-28T00:07:28.736Z,14.47
2019-05-28T00:09:59.761Z,13.37
2019-05-28T00:12:30.260Z,12.97
2019-05-28T00:15:01.413Z,14.23
2019-05-28T00:17:34.124Z,12.93
2019-05-28T00:20:05.300Z,13.97
2019-05-28T00:22:36.374Z,14.07
2019-05-28T00:25:08.000Z,13.53
2019-05-28T00:27:38.677Z,13.93
2019-05-28T00:30:19.612Z,13.20
2019-05-28T00:32:42.380Z,12.80
2019-05-28T00:35:15.180Z,13.17
2019-05-28T00:37:45.939Z,14.37
2019-05-28T00:40:16.726Z,12.40
2019-05-28T00:42:47.338Z,13.97
2019-05-28T00:45:18.864Z,16.03
2019-05-28T00:47:49.759Z,16.20
2019-05-28T00:50:20.675Z,14.93
2019-05-28T00:52:51.619Z,16.33
2019-05-28T00:55:22.715Z,17.67
2019-05-28T00:57:53.786Z,17.83
2019-05-28T01:00:46.111Z,16.67
2019-05-28T01:03:17.605Z,15.00
2019-05-28T01:05:48.660Z,14.57
2019-05-28T01:08:19.100Z,16.43
2019-05-28T01:10:50.162Z,15.57
2019-05-28T01:13:20.736Z,16.43
2019-05-28T01:15:51.624Z,16.00
2019-05-28T01:18:22.292Z,15.17
2019-05-28T01:20:52.927Z,16.93
2019-05-28T01:23:25.042Z,17.07
2019-05-28T01:25:56.456Z,16.90
2019-05-28T01:28:27.579Z,16.00
2019-05-28T01:31:00.837Z,16.80
2019-05-28T01:33:30.793Z,16.30
2019-05-28T01:36:01.765Z,14.97
2019-05-28T01:38:32.546Z,14.73
2019-05-28T01:41:04.280Z,14.03
2019-05-28T01:43:34.873Z,14.80
2019-05-28T01:46:05.931Z,13.20
2019-05-28T01:48:36.560Z,13.43
2019-05-28T01:51:07.500Z,13.53
2019-05-28T01:53:38.295Z,14.13
2019-05-28T01:56:09.349Z,14.27
2019-05-28T01:58:39.916Z,13.43
2019-05-28T02:01:13.205Z,14.83
2019-05-28T02:03:42.845Z,13.23
2019-05-28T02:06:13.410Z,14.33
2019-05-28T02:08:44.198Z,14.40
2019-05-28T02:11:14.879Z,14.30
2019-05-28T02:13:45.692Z,14.60
2019-05-28T02:16:16.786Z,13.47
2019-05-28T02:18:47.379Z,14.77
2019-05-28T02:21:18.233Z,13.43
2019-05-28T02:23:49.115Z,14.67
2019-05-28T02:26:19.585Z,14.37
2019-05-28T02:28:50.427Z,14.30
2019-05-28T02:31:27.672Z,13.13
2019-05-28T02:33:54.226Z,13.77
2019-05-28T02:36:24.938Z,13.53
2019-05-28T02:38:55.781Z,14.57
2019-05-28T02:41:26.620Z,15.83
2019-05-28T02:43:57.374Z,13.93
2019-05-28T02:46:27.850Z,14.40
2019-05-28T02:48:58.820Z,15.47
2019-05-28T02:51:29.552Z,16.13
2019-05-28T02:54:02.319Z,17.50
2019-05-28T02:56:33.306Z,15.73
2019-05-28T02:59:04.156Z,14.97
2019-05-28T03:01:43.893Z,17.47
2019-05-28T03:04:10.837Z,17.80
2019-05-28T03:06:44.442Z,16.63
2019-05-28T03:09:15.039Z,16.63
2019-05-28T03:11:45.530Z,16.33
2019-05-28T03:14:16.171Z,24.10
2019-05-28T03:16:49.013Z,25.80
2019-05-28T03:19:20.481Z,41.17
2019-05-28T03:21:52.286Z,15.47
2019-05-28T03:24:23.863Z,14.30
2019-05-28T03:26:54.713Z,12.13
2019-05-28T03:29:25.483Z,12.00
2019-05-28T03:32:07.917Z,11.20
2019-05-28T03:34:28.943Z,10.70
2019-05-28T03:37:00.699Z,10.27
2019-05-28T03:39:32.921Z,10.57
2019-05-28T03:42:03.536Z,9.73
2019-05-28T03:44:34.379Z,9.83
2019-05-28T03:47:05.104Z,10.77
2019-05-28T03:49:35.775Z,9.93
2019-05-28T03:52:06.518Z,10.47
2019-05-28T03:54:37.293Z,10.43
2019-05-28T03:57:08.366Z,9.63
2019-05-28T03:59:38.969Z,10.37
2019-05-28T04:02:22.498Z,10.03
2019-05-28T04:04:41.812Z,10.77
2019-05-28T04:07:12.790Z,12.77
2019-05-28T04:09:43.321Z,11.50
2019-05-28T04:12:14.722Z,10.67
2019-05-28T04:14:45.241Z,10.60
2019-05-28T04:17:16.058Z,11.63
2019-05-28T04:19:46.515Z,10.67
2019-05-28T04:22:17.013Z,8.50
2019-05-28T04:24:47.611Z,8.93
2019-05-28T04:27:18.638Z,9.13
2019-05-28T04:29:49.202Z,9.70
2019-05-28T04:32:19.781Z,8.33
2019-05-28T04:34:50.252Z,7.57
2019-05-28T04:37:20.811Z,8.23
2019-05-28T04:39:51.469Z,8.07
2019-05-28T04:42:22.615Z,8.03
2019-05-28T04:44:53.908Z,7.73
2019-05-28T04:47:24.649Z,8.97
2019-05-28T04:49:55.439Z,9.27
2019-05-28T04:52:26.145Z,9.63
2019-05-28T04:54:57.448Z,9.97
2019-05-28T04:57:28.348Z,10.50
2019-05-28T04:59:59.389Z,10.20
2019-05-28T05:02:30.239Z,10.13
2019-05-28T05:05:00.956Z,10.07
2019-05-28T05:07:31.752Z,10.03
2019-05-28T05:10:02.346Z,9.30
2019-05-28T05:12:33.253Z,8.33
2019-05-28T05:15:03.935Z,8.23
2019-05-28T05:17:36.151Z,7.80
2019-05-28T05:20:07.054Z,7.87
2019-05-28T05:22:37.686Z,6.77
2019-05-28T05:25:08.475Z,6.97
2019-05-28T05:27:39.454Z,6.37
2019-05-28T05:30:10.850Z,6.77
2019-05-28T05:32:41.446Z,6.30
2019-05-28T05:35:12.480Z,5.77
2019-05-28T05:37:43.394Z,6.30
2019-05-28T05:40:15.224Z,6.10
2019-05-28T05:42:46.399Z,6.53
2019-05-28T05:45:17.617Z,5.73
2019-05-28T05:47:48.795Z,5.83
2019-05-28T05:50:20.658Z,5.10
2019-05-28T05:52:51.413Z,5.37
2019-05-28T05:55:21.985Z,5.27
2019-05-28T05:57:52.950Z,5.30
2019-05-28T06:00:23.799Z,5.00
2019-05-28T06:02:55.155Z,3.93
2019-05-28T06:05:25.880Z,4.37
2019-05-28T06:07:56.983Z,4.70
2019-05-28T06:10:28.339Z,4.70
2019-05-28T06:13:00.647Z,3.70
2019-05-28T06:15:31.473Z,3.60
2019-05-28T06:18:02.663Z,3.60
2019-05-28T06:20:34.221Z,3.60
2019-05-28T06:23:05.377Z,3.60
2019-05-28T06:25:37.023Z,3.87
2019-05-28T06:28:08.000Z,3.60
2019-05-28T06:30:40.180Z,3.70
2019-05-28T06:33:11.371Z,3.97
2019-05-28T06:35:42.086Z,3.63
2019-05-28T06:38:13.126Z,3.97
2019-05-28T06:40:44.264Z,3.80
2019-05-28T06:43:15.282Z,4.33
2019-05-28T06:45:46.732Z,4.17
2019-05-28T06:48:17.581Z,4.37
2019-05-28T06:50:48.768Z,4.33
2019-05-28T06:53:19.771Z,4.00
2019-05-28T06:55:50.588Z,4.30
2019-05-28T06:58:38.024Z,5.60
2019-05-28T07:00:54.554Z,4.00
2019-05-28T07:03:25.266Z,4.50
2019-05-28T07:06:06.576Z,4.53
2019-05-28T07:08:28.257Z,4.20
2019-05-28T07:11:00.383Z,4.23
2019-05-28T07:13:31.229Z,3.97
2019-05-28T07:16:01.775Z,4.00
2019-05-28T07:18:32.313Z,4.00
2019-05-28T07:21:02.888Z,4.27
2019-05-28T07:23:33.416Z,4.20
2019-05-28T07:26:04.770Z,4.40
2019-05-28T07:28:35.307Z,4.33
2019-05-28T07:31:06.162Z,4.93
2019-05-28T07:33:36.805Z,4.77
2019-05-28T07:36:07.975Z,4.23
2019-05-28T07:38:38.447Z,4.07
2019-05-28T07:41:09.338Z,4.10
2019-05-28T07:43:39.865Z,4.33
2019-05-28T07:46:10.619Z,3.80
2019-05-28T07:48:41.583Z,4.40
2019-05-28T07:51:13.411Z,4.67
2019-05-28T07:53:44.096Z,4.83
2019-05-28T07:56:14.923Z,4.70
2019-05-28T07:58:45.544Z,4.73
2019-05-28T08:01:16.704Z,4.30
2019-05-28T08:03:47.225Z,4.17
2019-05-28T08:06:18.142Z,4.63
2019-05-28T08:08:48.590Z,4.20
2019-05-28T08:11:19.571Z,4.53
2019-05-28T08:13:52.568Z,4.77
2019-05-28T08:16:24.282Z,5.13
2019-05-28T08:18:55.518Z,3.57
2019-05-28T08:21:26.247Z,3.77
2019-05-28T08:23:56.686Z,4.43
2019-05-28T08:26:27.244Z,4.70
2019-05-28T08:28:59.734Z,4.07
2019-05-28T08:31:30.548Z,4.70
2019-05-28T08:34:01.493Z,5.33
2019-05-28T08:36:32.395Z,4.90
2019-05-28T08:39:04.666Z,4.20
2019-05-28T08:41:35.485Z,4.90
2019-05-28T08:44:06.321Z,5.17
2019-05-28T08:46:36.936Z,6.10
2019-05-28T08:49:07.526Z,51.40
2019-05-28T08:51:38.103Z,10.77
2019-05-28T08:54:09.079Z,5.73
2019-05-28T08:56:39.865Z,5.83
2019-05-28T08:59:10.983Z,7.47
2019-05-28T09:01:41.927Z,5.53
2019-05-28T09:04:12.722Z,4.87
2019-05-28T09:06:43.473Z,5.20
2019-05-28T09:09:14.785Z,4.33
2019-05-28T09:11:45.728Z,4.63
2019-05-28T09:14:16.814Z,4.97
2019-05-28T09:16:47.528Z,5.27
2019-05-28T09:19:18.296Z,4.83
2019-05-28T09:21:48.825Z,5.20
2019-05-28T09:24:19.961Z,5.00
2019-05-28T09:26:50.688Z,4.43
2019-05-28T09:29:21.352Z,4.77
2019-05-28T09:31:52.036Z,4.60
2019-05-28T09:34:22.830Z,4.63
2019-05-28T09:36:53.540Z,5.40
2019-05-28T09:39:24.818Z,5.23
2019-05-28T09:41:55.486Z,4.77
2019-05-28T09:44:26.144Z,4.83
2019-05-28T09:46:57.155Z,4.77
2019-05-28T09:49:27.709Z,4.70
2019-05-28T09:51:58.462Z,4.47
2019-05-28T09:54:30.463Z,4.50
2019-05-28T09:57:00.983Z,4.60
2019-05-28T09:59:41.115Z,4.20
2019-05-28T10:02:04.053Z,4.40
2019-05-28T10:04:47.929Z,4.50
2019-05-28T10:07:07.600Z,4.70
2019-05-28T10:09:38.707Z,5.50
2019-05-28T10:12:10.355Z,5.13
2019-05-28T10:14:44.196Z,5.33
2019-05-28T10:17:13.608Z,5.50
2019-05-28T10:19:44.376Z,5.60
2019-05-28T10:22:15.089Z,5.53
2019-05-28T10:24:45.797Z,4.37
2019-05-28T10:27:16.715Z,5.00
2019-05-28T10:29:47.240Z,5.63
2019-05-28T10:32:18.031Z,5.07
2019-05-28T10:35:03.075Z,5.23
2019-05-28T10:37:21.107Z,5.37
2019-05-28T10:39:51.939Z,5.17
2019-05-28T10:42:22.913Z,5.60
2019-05-28T10:44:53.549Z,5.63
2019-05-28T10:47:24.157Z,5.43
2019-05-28T10:49:54.974Z,4.90
2019-05-28T10:52:25.564Z,6.77
2019-05-28T10:54:56.553Z,5.43
2019-05-28T10:57:27.185Z,5.27
2019-05-28T10:59:57.643Z,4.53
2019-05-28T11:02:28.298Z,4.57
2019-05-28T11:04:58.902Z,5.03
2019-05-28T11:07:29.820Z,5.23
2019-05-28T11:10:01.189Z,4.77
2019-05-28T11:12:31.732Z,5.07
2019-05-28T11:15:02.372Z,5.43
2019-05-28T11:17:32.929Z,4.53
2019-05-28T11:20:04.043Z,4.00
2019-05-28T11:22:35.116Z,4.60
2019-05-28T11:25:08.220Z,5.00
2019-05-28T11:27:39.411Z,5.73
2019-05-28T11:30:10.647Z,4.00
2019-05-28T11:32:41.978Z,4.33
2019-05-28T11:35:13.233Z,4.43
2019-05-28T11:37:44.044Z,4.17
2019-05-28T11:40:15.764Z,4.30
2019-05-28T11:42:46.800Z,4.60
2019-05-28T11:45:18.750Z,3.97
2019-05-28T11:47:50.900Z,4.83
2019-05-28T11:50:22.388Z,4.00
2019-05-28T11:52:53.077Z,4.07
2019-05-28T11:55:24.913Z,4.43
2019-05-28T11:57:55.555Z,3.97
2019-05-28T12:00:27.697Z,3.90
2019-05-28T12:02:58.378Z,4.10
2019-05-28T12:05:28.839Z,5.03
2019-05-28T12:08:00.104Z,4.57
2019-05-28T12:10:31.038Z,4.50
2019-05-28T12:13:02.033Z,4.30
2019-05-28T12:15:32.920Z,4.37
2019-05-28T12:18:03.858Z,5.03
2019-05-28T12:20:34.952Z,4.27
2019-05-28T12:23:11.059Z,4.03
2019-05-28T12:25:38.239Z,23.37
2019-05-28T12:28:09.005Z,5.20
2019-05-28T12:30:39.603Z,7.23
2019-05-28T12:33:10.364Z,5.80
2019-05-28T12:35:42.947Z,4.50
2019-05-28T12:38:13.075Z,4.43
2019-05-28T12:40:48.232Z,4.70
2019-05-28T12:43:17.834Z,5.13
2019-05-28T12:45:48.959Z,4.90
2019-05-28T12:48:19.769Z,4.57
2019-05-28T12:50:50.700Z,4.70
2019-05-28T12:53:21.755Z,4.93
2019-05-28T12:55:52.381Z,5.23
2019-05-28T12:58:41.068Z,4.90
2019-05-28T13:00:56.655Z,4.40
2019-05-28T13:03:28.177Z,3.90
2019-05-28T13:05:59.906Z,4.20
2019-05-28T13:08:30.849Z,3.00
2019-05-28T13:11:01.699Z,3.23
2019-05-28T13:13:32.602Z,3.30
2019-05-28T13:16:03.397Z,3.23
2019-05-28T13:18:34.038Z,3.00
2019-05-28T13:21:05.033Z,2.37
2019-05-28T13:23:36.060Z,3.20
2019-05-28T13:26:07.263Z,3.13
2019-05-28T13:28:38.655Z,2.63
2019-05-28T13:31:09.744Z,2.20
2019-05-28T13:33:41.202Z,3.30
2019-05-28T13:36:12.818Z,2.50
2019-05-28T13:38:43.563Z,2.70
2019-05-28T13:41:15.017Z,3.20
2019-05-28T13:43:46.993Z,2.83
2019-05-28T13:46:17.659Z,2.47
2019-05-28T13:48:48.854Z,2.83
2019-05-28T13:51:20.423Z,2.83
2019-05-28T13:53:50.890Z,2.83
2019-05-28T13:56:21.601Z,2.30
2019-05-28T13:58:52.488Z,2.70
2019-05-28T14:01:25.669Z,2.83
2019-05-28T14:03:55.616Z,2.70
2019-05-28T14:06:26.325Z,3.20
2019-05-28T14:08:58.822Z,2.30
2019-05-28T14:11:29.769Z,2.90
2019-05-28T14:14:00.280Z,2.60
2019-05-28T14:16:31.143Z,2.53
2019-05-28T14:19:01.613Z,2.57
2019-05-28T14:21:32.423Z,2.00
2019-05-28T14:24:03.005Z,2.70
2019-05-28T14:26:33.893Z,3.00
2019-05-28T14:29:04.326Z,2.77
2019-05-28T14:31:35.153Z,2.13
2019-05-28T14:34:06.133Z,2.43
2019-05-28T14:36:36.739Z,2.77
2019-05-28T14:39:09.383Z,2.30
2019-05-28T14:41:40.755Z,2.63
2019-05-28T14:44:11.748Z,3.00
2019-05-28T14:46:42.457Z,2.40
2019-05-28T14:49:13.268Z,2.13
2019-05-28T14:51:43.960Z,1.90
2019-05-28T14:54:14.954Z,3.77
2019-05-28T14:56:46.508Z,2.27
2019-05-28T14:59:17.371Z,3.70
2019-05-28T15:01:48.183Z,2.47
2019-05-28T15:04:18.611Z,2.80
2019-05-28T15:06:49.317Z,2.57
2019-05-28T15:09:21.495Z,3.07
2019-05-28T15:11:52.649Z,2.70
2019-05-28T15:14:23.584Z,2.47
2019-05-28T15:16:54.498Z,4.00
2019-05-28T15:19:25.025Z,5.43
2019-05-28T15:21:55.741Z,2.70
2019-05-28T15:24:26.372Z,2.90
2019-05-28T15:26:57.059Z,2.43
2019-05-28T15:29:27.775Z,2.40
2019-05-28T15:31:58.464Z,2.40
2019-05-28T15:34:28.991Z,2.20
2019-05-28T15:36:59.513Z,2.47
2019-05-28T15:39:39.972Z,2.43
2019-05-28T15:42:02.505Z,1.73
2019-05-28T15:44:33.140Z,2.10
2019-05-28T15:47:03.992Z,1.90
2019-05-28T15:49:34.784Z,2.20
2019-05-28T15:52:07.968Z,2.37
2019-05-28T15:54:38.030Z,2.73
2019-05-28T15:57:09.260Z,2.30
2019-05-28T15:59:40.353Z,2.57
2019-05-28T16:02:12.533Z,1.87
2019-05-28T16:04:43.370Z,2.53
2019-05-28T16:07:14.385Z,2.10
2019-05-28T16:09:55.697Z,2.20
2019-05-28T16:12:17.821Z,1.70
2019-05-28T16:14:48.643Z,1.67
2019-05-28T16:17:19.643Z,1.63
2019-05-28T16:19:50.625Z,1.53
2019-05-28T16:22:21.481Z,1.20
2019-05-28T16:24:52.901Z,1.20
2019-05-28T16:27:24.000Z,1.23
2019-05-28T16:29:55.396Z,1.30
2019-05-28T16:32:29.061Z,1.20
2019-05-28T16:34:58.494Z,1.57
2019-05-28T16:37:29.442Z,1.70
2019-05-28T16:40:14.014Z,1.27
2019-05-28T16:42:32.768Z,1.60
2019-05-28T16:45:03.244Z,1.37
2019-05-28T16:47:34.393Z,1.20
2019-05-28T16:50:06.716Z,1.40
2019-05-28T16:52:37.507Z,1.27
2019-05-28T16:55:10.026Z,4.77
2019-05-28T16:57:41.276Z,1.57
2019-05-28T17:00:12.412Z,1.50
2019-05-28T17:02:43.446Z,24.17
2019-05-28T17:05:14.665Z,7.27
2019-05-28T17:07:45.537Z,5.10
2019-05-28T17:10:31.617Z,4.10
2019-05-28T17:12:49.044Z,3.93
2019-05-28T17:15:20.113Z,3.10
2019-05-28T17:17:50.860Z,2.50
2019-05-28T17:20:21.803Z,2.80
2019-05-28T17:22:55.317Z,1.90
2019-05-28T17:25:25.309Z,1.77
2019-05-28T17:27:56.262Z,1.87
2019-05-28T17:30:26.911Z,1.57
2019-05-28T17:32:57.680Z,1.80
2019-05-28T17:35:28.822Z,1.50
2019-05-28T17:37:59.460Z,1.77
2019-05-28T17:40:30.298Z,1.60
2019-05-28T17:43:01.563Z,2.53
2019-05-28T17:45:33.878Z,2.00
2019-05-28T17:48:04.748Z,2.10
2019-05-28T17:50:35.660Z,1.67
2019-05-28T17:53:06.309Z,1.73
2019-05-28T17:55:37.311Z,2.03
2019-05-28T17:58:08.175Z,1.50
2019-05-28T18:00:39.189Z,1.60
2019-05-28T18:03:10.334Z,1.70
2019-05-28T18:05:40.943Z,1.83
2019-05-28T18:08:11.792Z,1.40
2019-05-28T18:10:42.853Z,1.43
2019-05-28T18:13:13.428Z,1.63
2019-05-28T18:15:44.256Z,1.90
2019-05-28T18:18:15.069Z,5.47
2019-05-28T18:20:46.053Z,31.10
2019-05-28T18:23:16.848Z,11.57
2019-05-28T18:25:47.422Z,4.50
2019-05-28T18:28:18.060Z,2.60
2019-05-28T18:30:48.663Z,2.70
2019-05-28T18:33:19.954Z,2.10
2019-05-28T18:35:50.951Z,2.03
2019-05-28T18:38:21.769Z,2.00
2019-05-28T18:40:52.357Z,2.20
2019-05-28T18:43:23.228Z,2.70
2019-05-28T18:45:53.869Z,2.10
2019-05-28T18:48:24.860Z,2.03
2019-05-28T18:50:55.377Z,2.37
2019-05-28T18:53:26.196Z,2.37
2019-05-28T18:55:57.061Z,3.00
2019-05-28T18:58:28.303Z,6.50
2019-05-28T19:00:59.005Z,3.23
2019-05-28T19:03:29.709Z,3.50
2019-05-28T19:06:00.527Z,6.47
2019-05-28T19:08:32.285Z,4.50
2019-05-28T19:11:03.152Z,3.53
2019-05-28T19:13:34.196Z,3.47
2019-05-28T19:16:05.128Z,2.80
2019-05-28T19:18:35.935Z,3.63
2019-05-28T19:21:07.050Z,2.93
2019-05-28T19:23:37.792Z,2.90
2019-05-28T19:26:08.902Z,3.03
2019-05-28T19:28:39.865Z,3.10
2019-05-28T19:31:13.615Z,7.10
2019-05-28T19:33:44.443Z,6.10
2019-05-28T19:36:15.692Z,5.57
2019-05-28T19:38:47.478Z,5.00
2019-05-28T19:41:18.683Z,3.87
2019-05-28T19:43:49.495Z,2.93
2019-05-28T19:46:20.335Z,2.93
2019-05-28T19:48:53.013Z,2.83
2019-05-28T19:51:23.957Z,2.50
2019-05-28T19:53:54.693Z,3.07
2019-05-28T19:56:25.765Z,2.80
2019-05-28T19:58:56.668Z,3.30
2019-05-28T20:01:30.638Z,3.00
2019-05-28T20:04:01.513Z,3.57
2019-05-28T20:06:32.355Z,3.10
2019-05-28T20:09:03.753Z,3.30
2019-05-28T20:11:34.805Z,3.93
2019-05-28T20:14:05.901Z,16.00
2019-05-28T20:16:36.880Z,12.63
2019-05-28T20:19:07.726Z,10.07
2019-05-28T20:21:38.871Z,5.17
2019-05-28T20:24:09.743Z,18.67
2019-05-28T20:26:40.799Z,4.57
2019-05-28T20:29:11.780Z,3.30
2019-05-28T20:31:42.795Z,4.10
2019-05-28T20:34:13.693Z,3.57
2019-05-28T20:36:44.502Z,3.50
2019-05-28T20:39:15.431Z,3.40
2019-05-28T20:41:46.352Z,3.80
2019-05-28T20:44:18.241Z,3.70
2019-05-28T20:46:49.106Z,3.83
2019-05-28T20:49:19.946Z,4.23
2019-05-28T20:51:52.191Z,3.93
2019-05-28T20:54:23.231Z,4.57
2019-05-28T20:56:55.056Z,5.20
2019-05-28T20:59:26.687Z,4.70
2019-05-28T21:01:58.114Z,5.60
2019-05-28T21:04:30.310Z,5.73
2019-05-28T21:07:01.119Z,5.27
2019-05-28T21:09:31.943Z,5.10
2019-05-28T21:12:02.950Z,5.63
2019-05-28T21:14:33.933Z,5.67
2019-05-28T21:17:04.787Z,6.50
2019-05-28T21:19:35.363Z,7.30
2019-05-28T21:22:06.207Z,8.00
2019-05-28T21:24:37.274Z,7.70
2019-05-28T21:27:08.188Z,8.27
2019-05-28T21:29:38.834Z,7.97
2019-05-28T21:32:09.528Z,6.97
2019-05-28T21:34:40.280Z,6.83
2019-05-28T21:37:11.055Z,7.10
2019-05-28T21:39:41.916Z,6.60
2019-05-28T21:42:12.507Z,7.13
2019-05-28T21:44:43.101Z,7.37
2019-05-28T21:47:14.039Z,7.57
2019-05-28T21:49:44.788Z,10.87
2019-05-28T21:52:15.870Z,8.87
2019-05-28T21:54:46.486Z,8.20
2019-05-28T21:57:17.348Z,11.00
2019-05-28T21:59:50.264Z,14.83
2019-05-28T22:02:20.447Z,11.53
2019-05-28T22:04:51.371Z,20.83
2019-05-28T22:07:22.059Z,10.13
2019-05-28T22:09:52.695Z,10.10
2019-05-28T22:12:23.319Z,9.10
2019-05-28T22:14:55.904Z,8.93
2019-05-28T22:17:26.735Z,9.60
2019-05-28T22:19:58.266Z,10.00
2019-05-28T22:22:29.009Z,10.13
2019-05-28T22:25:00.471Z,9.80
2019-05-28T22:27:32.719Z,8.60
2019-05-28T22:30:04.730Z,9.20
2019-05-28T22:32:35.575Z,10.40
2019-05-28T22:35:06.692Z,8.70
2019-05-28T22:37:37.878Z,9.93
2019-05-28T22:40:09.629Z,9.87
2019-05-28T22:42:40.161Z,9.30
2019-05-28T22:45:11.127Z,9.83
2019-05-28T22:47:41.665Z,9.40
2019-05-28T22:50:21.692Z,8.73
2019-05-28T22:52:45.548Z,10.27
2019-05-28T22:55:16.393Z,9.53
2019-05-28T22:57:47.131Z,9.60
2019-05-28T23:00:18.181Z,10.53
2019-05-28T23:02:49.087Z,8.90
2019-05-28T23:05:20.076Z,8.87
2019-05-28T23:07:51.925Z,8.40
2019-05-28T23:10:22.397Z,8.00
2019-05-28T23:12:53.033Z,8.80
2019-05-28T23:15:23.682Z,8.77
2019-05-28T23:17:54.576Z,8.57
2019-05-28T23:20:25.462Z,8.97
2019-05-28T23:22:56.314Z,8.47
2019-05-28T23:25:26.996Z,8.70
2019-05-28T23:27:57.780Z,8.90
2019-05-28T23:30:28.629Z,7.93
2019-05-28T23:32:59.102Z,8.27
2019-05-28T23:35:29.838Z,8.53
2019-05-28T23:38:00.415Z,8.40
2019-05-28T23:40:31.025Z,7.83
2019-05-28T23:43:01.668Z,8.90
2019-05-28T23:45:33.001Z,8.43
2019-05-28T23:48:07.731Z,8.40
2019-05-28T23:50:36.280Z,7.87
2019-05-28T23:53:07.642Z,7.70
2019-05-28T23:55:38.212Z,7.37
2019-05-28T23:58:09.879Z,8.17
